createdAt,value
2022-12-23T00:00:36.271Z,9.60
2022-12-23T00:03:03.550Z,9.60
2022-12-23T00:05:39.014Z,9.60
2022-12-23T00:11:00.450Z,9.50
2022-12-23T00:14:02.669Z,9.60
2022-12-23T00:16:29.819Z,9.60
2022-12-23T00:19:04.630Z,9.60
2022-12-23T00:21:42.187Z,9.60
2022-12-23T00:24:09.075Z,9.50
2022-12-23T00:30:08.152Z,9.50
2022-12-23T00:32:47.531Z,9.50
2022-12-23T00:35:14.486Z,9.60
2022-12-23T00:37:50.368Z,9.60
2022-12-23T00:41:00.395Z,9.60
2022-12-23T00:43:33.299Z,9.60
2022-12-23T00:46:20.191Z,9.60
2022-12-23T00:50:14.883Z,9.60
2022-12-23T00:52:41.750Z,9.60
2022-12-23T00:55:23.717Z,9.60
2022-12-23T00:57:58.271Z,9.60
2022-12-23T01:00:57.847Z,9.70
2022-12-23T01:04:29.800Z,9.60
2022-12-23T01:07:22.036Z,9.60
2022-12-23T01:10:25.188Z,9.70
2022-12-23T01:15:45.041Z,9.70
2022-12-23T01:18:46.718Z,9.70
2022-12-23T01:21:51.805Z,9.70
2022-12-23T01:27:13.061Z,9.80
2022-12-23T01:34:20.822Z,9.80
2022-12-23T01:37:00.194Z,9.80
2022-12-23T01:39:56.109Z,9.80
2022-12-23T01:43:18.293Z,9.80
2022-12-23T01:45:45.263Z,9.90
2022-12-23T01:48:37.866Z,9.90
2022-12-23T01:51:37.847Z,9.90
2022-12-23T01:55:04.575Z,9.90
2022-12-23T01:58:20.459Z,9.90
2022-12-23T02:01:06.022Z,10.00
2022-12-23T02:04:24.496Z,10.00
2022-12-23T02:07:26.323Z,10.00
2022-12-23T02:13:16.784Z,10.10
2022-12-23T02:16:46.538Z,10.10
2022-12-23T02:24:34.705Z,10.10
2022-12-23T02:26:52.639Z,10.20
2022-12-23T02:30:00.691Z,10.20
2022-12-23T02:32:57.438Z,10.30
2022-12-23T02:35:58.808Z,10.30
2022-12-23T02:42:03.658Z,10.40
2022-12-23T02:45:08.160Z,10.40
2022-12-23T02:48:28.241Z,10.40
2022-12-23T02:51:05.739Z,10.40
2022-12-23T02:57:06.950Z,10.50
2022-12-23T02:59:49.024Z,10.50
2022-12-23T03:02:15.957Z,10.50
2022-12-23T03:04:49.073Z,10.50
2022-12-23T03:07:50.188Z,10.60
2022-12-23T03:14:30.382Z,10.60
2022-12-23T03:17:34.391Z,10.60
2022-12-23T03:20:13.576Z,10.60
2022-12-23T03:23:17.272Z,10.70
2022-12-23T03:29:45.712Z,10.70
2022-12-23T03:32:23.707Z,10.70
2022-12-23T03:35:04.920Z,10.80
2022-12-23T03:38:20.663Z,10.70
2022-12-23T03:41:41.538Z,10.70
2022-12-23T03:44:28.182Z,10.80
2022-12-23T03:48:12.050Z,10.80
2022-12-23T03:51:25.654Z,10.80
2022-12-23T03:54:13.975Z,10.80
2022-12-23T03:57:30.824Z,10.80
2022-12-23T04:00:18.664Z,10.80
2022-12-23T04:03:37.324Z,10.80
2022-12-23T04:06:16.681Z,10.80
2022-12-23T04:08:55.429Z,10.70
2022-12-23T04:11:36.709Z,10.70
2022-12-23T04:14:20.728Z,10.70
2022-12-23T04:17:04.412Z,10.70
2022-12-23T04:20:18.540Z,10.70
2022-12-23T04:23:04.754Z,10.70
2022-12-23T04:26:06.511Z,10.70
2022-12-23T04:28:41.157Z,10.70
2022-12-23T04:31:46.408Z,10.70
2022-12-23T04:34:28.709Z,10.60
2022-12-23T04:37:10.867Z,10.60
2022-12-23T04:42:35.478Z,10.60
2022-12-23T04:45:27.702Z,10.50
2022-12-23T04:47:56.563Z,10.50
2022-12-23T04:51:15.468Z,10.50
2022-12-23T04:59:13.329Z,10.50
2022-12-23T05:01:54.710Z,10.50
2022-12-23T05:04:21.650Z,10.50
2022-12-23T05:06:58.699Z,10.50
2022-12-23T05:09:25.623Z,10.50
2022-12-23T05:12:20.854Z,10.50
2022-12-23T05:14:59.478Z,10.50
2022-12-23T05:17:26.452Z,10.60
2022-12-23T05:20:01.987Z,10.60
2022-12-23T05:22:28.841Z,10.60
2022-12-23T05:25:07.375Z,10.60
2022-12-23T05:27:48.885Z,10.60
2022-12-23T05:30:15.851Z,10.60
2022-12-23T05:33:07.535Z,10.60
2022-12-23T05:35:38.423Z,10.60
2022-12-23T05:38:30.182Z,10.60
2022-12-23T05:40:57.292Z,10.60
2022-12-23T05:43:34.830Z,10.60
2022-12-23T05:46:01.724Z,10.60
2022-12-23T05:48:34.748Z,10.60
2022-12-23T05:51:01.604Z,10.60
2022-12-23T05:53:30.885Z,10.60
2022-12-23T05:55:57.697Z,10.60
2022-12-23T05:58:24.666Z,10.60
2022-12-23T06:00:51.421Z,10.60
2022-12-23T06:03:18.426Z,10.70
2022-12-23T06:05:45.360Z,10.70
2022-12-23T06:08:12.134Z,10.70
2022-12-23T06:10:38.903Z,10.70
2022-12-23T06:13:05.751Z,10.70
2022-12-23T06:15:32.576Z,10.70
2022-12-23T06:17:59.326Z,10.70
2022-12-23T06:20:26.126Z,10.70
2022-12-23T06:22:52.899Z,10.70
2022-12-23T06:25:19.925Z,10.70
2022-12-23T06:27:46.985Z,10.70
2022-12-23T06:30:14.702Z,10.70
2022-12-23T06:32:41.654Z,10.70
2022-12-23T06:35:08.953Z,10.80
2022-12-23T06:37:35.759Z,10.80
2022-12-23T06:40:02.617Z,10.80
2022-12-23T06:42:29.425Z,10.80
2022-12-23T06:44:56.163Z,10.80
2022-12-23T06:47:22.886Z,10.80
2022-12-23T06:49:49.615Z,10.80
2022-12-23T06:52:16.470Z,10.90
2022-12-23T06:54:43.216Z,10.90
2022-12-23T06:57:09.897Z,10.90
2022-12-23T06:59:36.695Z,10.90
2022-12-23T07:02:04.055Z,10.90
2022-12-23T07:04:30.998Z,10.90
2022-12-23T07:06:58.702Z,10.90
2022-12-23T07:09:26.184Z,10.90
2022-12-23T07:11:52.924Z,10.80
2022-12-23T07:14:19.625Z,10.80
2022-12-23T07:16:46.476Z,10.80
2022-12-23T07:19:13.192Z,10.80
2022-12-23T07:21:39.985Z,10.80
2022-12-23T07:24:07.410Z,10.80
2022-12-23T07:26:34.196Z,10.80
2022-12-23T07:29:02.151Z,10.80
2022-12-23T07:31:28.983Z,10.80
2022-12-23T07:33:55.813Z,10.80
2022-12-23T07:36:22.546Z,10.80
2022-12-23T07:38:51.284Z,10.80
2022-12-23T07:41:18.508Z,10.80
2022-12-23T07:43:45.532Z,10.80
2022-12-23T07:46:12.364Z,10.80
2022-12-23T07:48:41.574Z,10.80
2022-12-23T07:51:08.973Z,10.80
2022-12-23T07:53:35.813Z,10.80
2022-12-23T07:56:02.734Z,10.90
2022-12-23T07:58:29.445Z,10.90
2022-12-23T08:01:01.408Z,10.90
2022-12-23T08:03:28.518Z,10.90
2022-12-23T08:06:03.543Z,10.90
2022-12-23T08:08:30.677Z,10.90
2022-12-23T08:10:59.331Z,10.90
2022-12-23T08:13:26.385Z,10.90
2022-12-23T08:15:58.099Z,10.90
2022-12-23T08:18:25.735Z,10.90
2022-12-23T08:21:01.186Z,10.90
2022-12-23T08:23:29.491Z,10.90
2022-12-23T08:26:01.349Z,10.90
2022-12-23T08:28:28.966Z,10.90
2022-12-23T08:30:56.160Z,10.90
2022-12-23T08:33:23.015Z,11.00
2022-12-23T08:35:54.685Z,11.00
2022-12-23T08:38:21.515Z,11.00
2022-12-23T08:40:48.483Z,11.00
2022-12-23T08:43:15.255Z,11.00
2022-12-23T08:45:42.195Z,11.00
2022-12-23T08:48:08.972Z,11.00
2022-12-23T08:50:41.335Z,11.00
2022-12-23T08:53:08.716Z,11.00
2022-12-23T08:55:40.700Z,11.10
2022-12-23T08:58:08.515Z,11.10
2022-12-23T09:00:36.451Z,11.10
2022-12-23T09:03:03.786Z,11.10
2022-12-23T09:05:31.458Z,11.20
2022-12-23T09:07:58.967Z,11.20
2022-12-23T09:10:26.214Z,11.20
2022-12-23T09:12:52.917Z,11.20
2022-12-23T09:15:19.805Z,11.20
2022-12-23T09:17:46.560Z,11.20
2022-12-23T09:20:13.373Z,11.30
2022-12-23T09:22:40.133Z,11.30
2022-12-23T09:25:17.602Z,11.30
2022-12-23T09:27:44.700Z,11.30
2022-12-23T09:30:11.843Z,11.30
2022-12-23T09:32:41.752Z,11.40
2022-12-23T09:35:09.978Z,11.40
2022-12-23T09:37:36.899Z,11.40
2022-12-23T09:40:04.855Z,11.30
2022-12-23T09:42:53.957Z,11.40
2022-12-23T09:45:26.225Z,11.40
2022-12-23T09:47:55.459Z,11.40
2022-12-23T09:50:30.352Z,11.40
2022-12-23T09:53:06.679Z,11.40
2022-12-23T09:55:52.430Z,11.40
2022-12-23T09:58:31.992Z,11.40
2022-12-23T10:01:45.420Z,11.40
2022-12-23T10:04:36.820Z,11.40
2022-12-23T10:07:06.371Z,11.40
2022-12-23T10:09:37.573Z,11.40
2022-12-23T10:12:42.145Z,11.40
2022-12-23T10:15:35.121Z,11.40
2022-12-23T10:18:10.550Z,11.40
2022-12-23T10:20:47.998Z,11.50
2022-12-23T10:23:31.400Z,11.50
2022-12-23T10:25:58.295Z,11.50
2022-12-23T10:28:30.024Z,11.50
2022-12-23T10:31:39.137Z,11.50
2022-12-23T10:34:15.500Z,11.50
2022-12-23T10:37:19.227Z,11.60
2022-12-23T10:40:13.438Z,11.60
2022-12-23T10:42:57.331Z,11.60
2022-12-23T10:45:33.262Z,11.60
2022-12-23T10:48:24.875Z,11.70
2022-12-23T10:51:00.110Z,11.70
2022-12-23T10:53:56.115Z,11.70
2022-12-23T10:56:23.180Z,11.80
2022-12-23T10:58:58.469Z,11.80
2022-12-23T11:01:27.450Z,11.80
2022-12-23T11:04:03.379Z,11.90
2022-12-23T11:06:37.099Z,11.90
2022-12-23T11:09:12.119Z,12.00
2022-12-23T11:12:02.515Z,12.00
2022-12-23T11:14:49.642Z,12.00
2022-12-23T11:17:25.458Z,12.00
2022-12-23T11:20:17.054Z,12.10
2022-12-23T11:22:49.414Z,12.10
2022-12-23T11:25:27.516Z,12.10
2022-12-23T11:28:19.927Z,12.10
2022-12-23T11:31:08.137Z,12.10
2022-12-23T11:33:38.511Z,12.10
2022-12-23T11:36:08.966Z,12.20
2022-12-23T11:38:47.072Z,12.20
2022-12-23T11:41:22.445Z,12.20
2022-12-23T11:43:58.294Z,12.20
2022-12-23T11:46:31.283Z,12.20
2022-12-23T11:49:21.629Z,12.20
2022-12-23T11:52:10.376Z,12.30
2022-12-23T11:54:37.680Z,12.30
2022-12-23T11:57:08.361Z,12.30
2022-12-23T11:59:39.800Z,12.20
2022-12-23T12:02:26.590Z,12.30
2022-12-23T12:05:05.337Z,12.30
2022-12-23T12:07:32.922Z,12.30
2022-12-23T12:10:01.212Z,12.30
2022-12-23T12:12:29.181Z,12.30
2022-12-23T12:14:59.218Z,12.30
2022-12-23T12:17:37.545Z,12.20
2022-12-23T12:20:10.434Z,12.30
2022-12-23T12:22:59.306Z,12.20
2022-12-23T12:25:29.112Z,12.20
2022-12-23T12:28:02.828Z,12.30
2022-12-23T12:30:34.612Z,12.20
2022-12-23T12:33:08.422Z,12.30
2022-12-23T12:35:53.458Z,12.30
2022-12-23T12:38:27.338Z,12.30
2022-12-23T12:41:16.334Z,12.30
2022-12-23T12:43:51.024Z,12.30
2022-12-23T12:46:40.980Z,12.30
2022-12-23T12:49:26.089Z,12.30
2022-12-23T12:52:13.332Z,12.30
2022-12-23T12:55:01.165Z,12.30
2022-12-23T12:57:36.256Z,12.30
2022-12-23T13:00:06.895Z,12.30
2022-12-23T13:02:42.847Z,12.30
2022-12-23T13:05:12.879Z,12.40
2022-12-23T13:08:12.492Z,12.40
2022-12-23T13:10:45.051Z,12.40
2022-12-23T13:13:26.948Z,12.40
2022-12-23T13:16:03.263Z,12.40
2022-12-23T13:19:03.137Z,12.40
2022-12-23T13:21:52.541Z,12.40
2022-12-23T13:24:29.478Z,12.40
2022-12-23T13:27:11.082Z,12.40
2022-12-23T13:29:46.005Z,12.40
2022-12-23T13:32:36.892Z,12.50
2022-12-23T13:35:32.142Z,12.50
2022-12-23T13:38:17.939Z,12.50
2022-12-23T13:41:09.462Z,12.50
2022-12-23T13:43:40.598Z,12.50
2022-12-23T13:46:33.699Z,12.50
2022-12-23T13:49:33.073Z,12.50
2022-12-23T13:52:41.617Z,12.50
2022-12-23T13:55:45.157Z,12.50
2022-12-23T13:58:15.641Z,12.50
2022-12-23T14:00:42.946Z,12.50
2022-12-23T14:03:09.685Z,12.50
2022-12-23T14:05:45.277Z,12.50
2022-12-23T14:08:43.520Z,12.50
2022-12-23T14:11:24.820Z,12.50
2022-12-23T14:13:55.675Z,12.50
2022-12-23T14:16:40.951Z,12.50
2022-12-23T14:19:14.181Z,12.50
2022-12-23T14:21:46.907Z,12.50
2022-12-23T14:24:25.637Z,12.40
2022-12-23T14:27:11.823Z,12.40
2022-12-23T14:30:05.588Z,12.40
2022-12-23T14:32:45.016Z,12.40
2022-12-23T14:35:16.664Z,12.40
2022-12-23T14:38:03.610Z,12.40
2022-12-23T14:40:39.632Z,12.40
2022-12-23T14:43:26.482Z,12.40
2022-12-23T14:45:56.512Z,12.40
2022-12-23T14:48:42.110Z,12.40
2022-12-23T14:51:08.853Z,12.40
2022-12-23T14:53:53.978Z,12.40
2022-12-23T14:56:26.523Z,12.40
2022-12-23T14:59:02.642Z,12.40
2022-12-23T15:01:32.522Z,12.40
2022-12-23T15:04:05.309Z,12.40
2022-12-23T15:06:37.885Z,12.40
2022-12-23T15:09:05.975Z,12.40
2022-12-23T15:11:35.039Z,12.40
2022-12-23T15:14:10.230Z,12.40
2022-12-23T15:16:40.364Z,12.40
2022-12-23T15:19:19.665Z,12.40
2022-12-23T15:21:50.186Z,12.50
2022-12-23T15:24:22.625Z,12.50
2022-12-23T15:27:24.534Z,12.50
2022-12-23T15:29:47.687Z,12.50
2022-12-23T15:32:14.571Z,12.50
2022-12-23T15:34:41.851Z,12.50
2022-12-23T15:37:13.169Z,12.50
2022-12-23T15:39:43.773Z,12.50
2022-12-23T15:42:31.675Z,12.50
2022-12-23T15:44:58.728Z,12.50
2022-12-23T15:47:39.467Z,12.50
2022-12-23T15:50:14.616Z,12.60
2022-12-23T15:52:43.751Z,12.50
2022-12-23T15:55:14.845Z,12.60
2022-12-23T15:57:50.332Z,12.60
2022-12-23T16:00:23.467Z,12.60
2022-12-23T16:03:01.620Z,12.60
2022-12-23T16:05:30.881Z,12.60
2022-12-23T16:08:16.215Z,12.60
2022-12-23T16:10:55.904Z,12.60
2022-12-23T16:13:22.842Z,12.60
2022-12-23T16:15:49.888Z,12.60
2022-12-23T16:18:23.981Z,12.60
2022-12-23T16:21:02.747Z,12.60
2022-12-23T16:23:31.232Z,12.60
2022-12-23T16:25:59.827Z,12.60
2022-12-23T16:28:33.883Z,12.60
2022-12-23T16:31:00.784Z,12.60
2022-12-23T16:33:39.721Z,12.60
2022-12-23T16:36:32.252Z,12.60
2022-12-23T16:39:00.833Z,12.60
2022-12-23T16:41:27.580Z,12.60
2022-12-23T16:43:54.668Z,12.60
2022-12-23T16:46:23.208Z,12.60
2022-12-23T16:48:58.685Z,12.70
2022-12-23T16:51:27.196Z,12.70
2022-12-23T16:53:56.725Z,12.60
2022-12-23T16:56:27.493Z,12.60
2022-12-23T16:58:54.450Z,12.70
2022-12-23T17:01:25.940Z,12.70
2022-12-23T17:03:53.025Z,12.70
2022-12-23T17:06:20.795Z,12.70
2022-12-23T17:08:47.822Z,12.70
2022-12-23T17:11:22.820Z,12.70
2022-12-23T17:13:50.087Z,12.70
2022-12-23T17:16:22.029Z,12.70
2022-12-23T17:18:50.640Z,12.70
2022-12-23T17:21:22.212Z,12.70
2022-12-23T17:23:50.166Z,12.70
2022-12-23T17:26:16.936Z,12.70
2022-12-23T17:28:43.732Z,12.70
2022-12-23T17:31:15.411Z,12.70
2022-12-23T17:33:43.906Z,12.70
2022-12-23T17:36:12.205Z,12.60
2022-12-23T17:38:38.980Z,12.60
2022-12-23T17:41:05.952Z,12.60
2022-12-23T17:43:32.811Z,12.60
2022-12-23T17:45:59.577Z,12.60
2022-12-23T17:48:31.326Z,12.60
2022-12-23T17:50:58.546Z,12.60
2022-12-23T17:53:25.267Z,12.60
2022-12-23T17:55:52.073Z,12.60
2022-12-23T17:58:19.902Z,12.70
2022-12-23T18:00:46.742Z,12.70
2022-12-23T18:03:22.949Z,12.70
2022-12-23T18:05:53.003Z,12.70
2022-12-23T18:08:24.142Z,12.70
2022-12-23T18:10:50.961Z,12.80
2022-12-23T18:13:19.435Z,12.80
2022-12-23T18:15:46.766Z,12.80
2022-12-23T18:18:29.618Z,12.80
2022-12-23T18:21:02.570Z,12.80
2022-12-23T18:23:31.155Z,12.80
2022-12-23T18:25:58.839Z,12.90
2022-12-23T18:28:26.307Z,12.80
2022-12-23T18:30:56.153Z,12.80
2022-12-23T18:33:24.255Z,12.70
2022-12-23T18:35:51.359Z,12.70
2022-12-23T18:38:18.454Z,12.60
2022-12-23T18:40:45.627Z,12.60
2022-12-23T18:43:24.645Z,12.50
2022-12-23T18:45:53.828Z,12.50
2022-12-23T18:48:21.400Z,12.50
2022-12-23T18:50:48.400Z,12.50
2022-12-23T18:53:24.621Z,12.40
2022-12-23T18:55:52.745Z,12.40
2022-12-23T18:58:20.440Z,12.40
2022-12-23T19:00:48.699Z,12.40
2022-12-23T19:03:25.219Z,12.40
2022-12-23T19:05:53.387Z,12.50
2022-12-23T19:08:26.300Z,12.40
2022-12-23T19:10:54.123Z,12.50
2022-12-23T19:13:21.080Z,12.50
2022-12-23T19:15:47.867Z,12.50
2022-12-23T19:18:17.007Z,12.50
2022-12-23T19:20:45.368Z,12.40
2022-12-23T19:23:12.444Z,12.50
2022-12-23T19:25:49.179Z,12.50
2022-12-23T19:28:21.715Z,12.40
2022-12-23T19:30:48.710Z,12.40
2022-12-23T19:33:15.696Z,12.40
2022-12-23T19:35:43.447Z,12.40
2022-12-23T19:38:10.785Z,12.40
2022-12-23T19:40:37.834Z,12.40
2022-12-23T19:43:04.840Z,12.40
2022-12-23T19:45:31.840Z,12.40
2022-12-23T19:47:58.623Z,12.40
2022-12-23T19:50:27.017Z,12.40
2022-12-23T19:52:54.764Z,12.30
2022-12-23T19:55:21.639Z,12.30
2022-12-23T19:57:48.432Z,12.30
2022-12-23T20:00:15.940Z,12.30
2022-12-23T20:02:43.715Z,12.30
2022-12-23T20:05:10.563Z,12.30
2022-12-23T20:07:37.860Z,12.30
2022-12-23T20:10:05.853Z,12.30
2022-12-23T20:12:33.009Z,12.30
2022-12-23T20:14:59.908Z,12.30
2022-12-23T20:17:26.789Z,12.20
2022-12-23T20:19:53.666Z,12.20
2022-12-23T20:22:20.411Z,12.20
2022-12-23T20:24:47.273Z,12.20
2022-12-23T20:27:16.168Z,12.20
2022-12-23T20:29:43.326Z,12.20
2022-12-23T20:32:10.450Z,12.20
2022-12-23T20:34:40.069Z,12.20
2022-12-23T20:37:07.776Z,12.20
2022-12-23T20:39:34.841Z,12.10
2022-12-23T20:42:01.561Z,12.10
2022-12-23T20:44:36.821Z,12.10
2022-12-23T20:47:06.088Z,12.00
2022-12-23T20:49:33.139Z,12.00
2022-12-23T20:51:59.925Z,12.00
2022-12-23T20:54:32.618Z,12.00
2022-12-23T20:57:02.255Z,12.00
2022-12-23T20:59:29.057Z,12.00
2022-12-23T21:01:56.579Z,12.00
2022-12-23T21:04:23.489Z,12.00
2022-12-23T21:06:50.308Z,12.00
2022-12-23T21:09:17.249Z,12.00
2022-12-23T21:11:46.199Z,12.00
2022-12-23T21:14:14.391Z,11.90
2022-12-23T21:16:42.260Z,11.90
2022-12-23T21:19:17.434Z,11.90
2022-12-23T21:21:44.760Z,11.90
2022-12-23T21:24:11.661Z,11.90
2022-12-23T21:26:39.073Z,11.90
2022-12-23T21:29:07.803Z,11.80
2022-12-23T21:31:37.536Z,11.90
2022-12-23T21:34:04.939Z,11.90
2022-12-23T21:36:34.287Z,11.80
2022-12-23T21:39:01.750Z,11.80
2022-12-23T21:41:31.287Z,11.80
2022-12-23T21:43:59.275Z,11.80
2022-12-23T21:46:27.514Z,11.70
2022-12-23T21:48:56.156Z,11.70
2022-12-23T21:51:26.070Z,11.70
2022-12-23T21:53:54.880Z,11.60
2022-12-23T21:56:24.841Z,11.60
2022-12-23T21:58:56.085Z,11.50
2022-12-23T22:01:23.758Z,11.50
2022-12-23T22:03:51.803Z,11.50
2022-12-23T22:06:21.945Z,11.40
2022-12-23T22:08:50.794Z,11.40
2022-12-23T22:11:20.710Z,11.30
2022-12-23T22:13:47.705Z,11.30
2022-12-23T22:16:21.578Z,11.30
2022-12-23T22:18:49.135Z,11.30
2022-12-23T22:21:19.214Z,11.30
2022-12-23T22:23:46.566Z,11.30
2022-12-23T22:26:22.135Z,11.30
2022-12-23T22:28:51.184Z,11.30
2022-12-23T22:31:21.431Z,11.30
2022-12-23T22:33:48.159Z,11.30
2022-12-23T22:36:16.015Z,11.30
2022-12-23T22:38:43.556Z,11.30
2022-12-23T22:41:10.891Z,11.30
2022-12-23T22:43:38.065Z,11.40
2022-12-23T22:46:05.327Z,11.40
2022-12-23T22:48:32.350Z,11.40
2022-12-23T22:51:14.061Z,11.30
2022-12-23T22:53:41.288Z,11.40
2022-12-23T22:56:08.514Z,11.30
2022-12-23T22:58:35.244Z,11.30
2022-12-23T23:01:02.329Z,11.30
2022-12-23T23:03:29.440Z,11.30
2022-12-23T23:06:02.461Z,11.30
2022-12-23T23:08:30.309Z,11.20
2022-12-23T23:10:58.752Z,11.20
2022-12-23T23:13:28.279Z,11.20
2022-12-23T23:15:55.974Z,11.20
2022-12-23T23:18:23.652Z,11.10
2022-12-23T23:20:50.479Z,11.10
2022-12-23T23:23:17.425Z,11.00
2022-12-23T23:25:44.573Z,11.00
2022-12-23T23:28:11.782Z,11.00
2022-12-23T23:30:39.441Z,10.90
2022-12-23T23:33:08.372Z,10.90
2022-12-23T23:35:35.153Z,10.90
2022-12-23T23:38:01.988Z,10.90
2022-12-23T23:40:29.889Z,10.90
2022-12-23T23:42:56.670Z,10.90
2022-12-23T23:45:23.564Z,10.90
2022-12-23T23:47:50.566Z,10.90
2022-12-23T23:50:17.432Z,10.90
2022-12-23T23:52:44.175Z,10.90
2022-12-23T23:55:11.033Z,10.90
2022-12-23T23:57:37.965Z,10.90
